createdAt,value
2023-05-18T00:01:56.450Z,7.75
2023-05-18T00:03:59.187Z,7.69
2023-05-18T00:06:04.562Z,7.64
2023-05-18T00:08:08.724Z,7.52
2023-05-18T00:10:12.675Z,7.50
2023-05-18T00:12:15.486Z,7.42
2023-05-18T00:14:19.880Z,7.42
2023-05-18T00:16:22.700Z,7.33
2023-05-18T00:18:26.649Z,7.21
2023-05-18T00:20:30.067Z,7.17
2023-05-18T00:22:32.902Z,7.16
2023-05-18T00:24:37.049Z,7.04
2023-05-18T00:26:40.546Z,7.00
2023-05-18T00:28:43.248Z,6.96
2023-05-18T00:30:47.374Z,6.93
2023-05-18T00:32:50.229Z,6.92
2023-05-18T00:34:53.091Z,6.95
2023-05-18T00:36:55.724Z,6.95
2023-05-18T00:38:58.434Z,6.86
2023-05-18T00:41:01.321Z,6.85
2023-05-18T00:43:04.050Z,6.86
2023-05-18T00:45:08.240Z,6.91
2023-05-18T00:47:12.421Z,6.84
2023-05-18T00:49:15.393Z,6.88
2023-05-18T00:51:18.879Z,6.83
2023-05-18T00:53:21.613Z,6.85
2023-05-18T00:55:24.523Z,6.75
2023-05-18T00:57:28.658Z,6.82
2023-05-18T00:59:32.803Z,6.80
2023-05-18T01:01:36.309Z,6.78
2023-05-18T01:03:43.096Z,6.79
2023-05-18T01:05:45.845Z,6.70
2023-05-18T01:07:50.528Z,6.73
2023-05-18T01:09:53.437Z,6.66
2023-05-18T01:12:05.980Z,6.58
2023-05-18T01:14:30.627Z,6.62
2023-05-18T01:16:46.586Z,6.57
2023-05-18T01:19:00.781Z,6.55
2023-05-18T01:21:19.272Z,6.58
2023-05-18T01:23:46.793Z,6.57
2023-05-18T01:26:02.014Z,6.54
2023-05-18T01:28:10.117Z,6.59
2023-05-18T01:30:15.094Z,6.58
2023-05-18T01:32:19.366Z,6.65
2023-05-18T01:34:22.015Z,6.59
2023-05-18T01:36:24.709Z,6.54
2023-05-18T01:38:29.366Z,6.51
2023-05-18T01:40:36.225Z,6.44
2023-05-18T01:42:45.981Z,6.46
2023-05-18T01:44:53.667Z,6.42
2023-05-18T01:47:01.223Z,6.34
2023-05-18T01:49:12.361Z,6.38
2023-05-18T01:51:18.504Z,6.34
2023-05-18T01:53:26.010Z,6.31
2023-05-18T01:55:31.769Z,6.36
2023-05-18T01:57:37.413Z,6.43
2023-05-18T01:59:42.068Z,6.34
2023-05-18T02:01:45.266Z,6.26
2023-05-18T02:03:48.076Z,6.29
2023-05-18T02:05:50.948Z,6.20
2023-05-18T02:07:53.687Z,6.25
2023-05-18T02:09:56.452Z,6.15
2023-05-18T02:11:59.232Z,6.18
2023-05-18T02:14:01.892Z,6.32
2023-05-18T02:16:06.582Z,6.32
2023-05-18T02:18:09.350Z,6.22
2023-05-18T02:20:12.453Z,6.23
2023-05-18T02:22:15.105Z,6.20
2023-05-18T02:24:18.324Z,6.22
2023-05-18T02:26:21.018Z,6.40
2023-05-18T02:28:24.067Z,6.32
2023-05-18T02:30:26.916Z,6.40
2023-05-18T02:32:32.537Z,6.34
2023-05-18T02:34:38.198Z,6.40
2023-05-18T02:36:42.598Z,6.45
2023-05-18T02:38:45.475Z,6.44
2023-05-18T02:40:49.374Z,6.40
2023-05-18T02:42:52.046Z,6.50
2023-05-18T02:44:56.205Z,6.46
2023-05-18T02:46:58.865Z,6.53
2023-05-18T02:49:03.204Z,6.47
2023-05-18T02:51:06.362Z,6.39
2023-05-18T02:53:09.116Z,6.33
2023-05-18T02:55:13.888Z,6.47
2023-05-18T02:57:16.823Z,6.38
2023-05-18T02:59:19.708Z,6.38
2023-05-18T03:01:22.566Z,6.38
2023-05-18T03:03:25.732Z,6.40
2023-05-18T03:05:30.116Z,6.29
2023-05-18T03:07:33.147Z,6.23
2023-05-18T03:09:36.100Z,6.12
2023-05-18T03:11:38.758Z,6.19
2023-05-18T03:13:41.404Z,6.11
2023-05-18T03:15:45.456Z,6.09
2023-05-18T03:17:49.588Z,6.01
2023-05-18T03:19:52.377Z,6.01
2023-05-18T03:21:57.961Z,6.01
2023-05-18T03:24:00.659Z,5.99
2023-05-18T03:26:03.932Z,6.03
2023-05-18T03:28:07.043Z,5.97
2023-05-18T03:30:10.725Z,6.00
2023-05-18T03:32:13.398Z,5.96
2023-05-18T03:34:16.129Z,6.05
2023-05-18T03:36:18.840Z,6.09
2023-05-18T03:38:23.107Z,6.02
2023-05-18T03:40:25.948Z,6.11
2023-05-18T03:42:28.906Z,6.00
2023-05-18T03:44:31.868Z,5.97
2023-05-18T03:46:34.671Z,5.94
2023-05-18T03:48:37.374Z,5.97
2023-05-18T03:50:40.687Z,5.96
2023-05-18T03:52:44.780Z,5.90
2023-05-18T03:54:49.160Z,5.87
2023-05-18T03:56:52.282Z,5.89
2023-05-18T03:58:55.103Z,5.89
2023-05-18T04:00:57.940Z,5.86
2023-05-18T04:03:03.460Z,5.87
2023-05-18T04:05:06.956Z,5.78
2023-05-18T04:07:10.062Z,5.85
2023-05-18T04:09:14.713Z,5.91
2023-05-18T04:11:19.040Z,5.86
2023-05-18T04:13:21.701Z,5.99
2023-05-18T04:15:24.485Z,5.96
2023-05-18T04:17:27.174Z,5.92
2023-05-18T04:19:30.069Z,6.00
2023-05-18T04:21:35.338Z,6.00
2023-05-18T04:23:39.083Z,6.00
2023-05-18T04:25:41.836Z,6.11
2023-05-18T04:27:46.108Z,6.24
2023-05-18T04:29:49.242Z,6.58
2023-05-18T04:31:53.617Z,6.86
2023-05-18T04:33:57.472Z,6.86
2023-05-18T04:36:04.932Z,7.46
2023-05-18T04:40:38.271Z,7.72
2023-05-18T04:42:45.361Z,7.58
2023-05-18T04:44:52.196Z,7.67
2023-05-18T04:46:55.135Z,7.73
2023-05-18T04:48:58.862Z,7.90
2023-05-18T04:51:01.512Z,7.98
2023-05-18T04:53:06.041Z,8.09
2023-05-18T04:55:10.943Z,8.16
2023-05-18T04:57:14.066Z,7.94
2023-05-18T04:59:16.817Z,8.04
2023-05-18T05:01:21.121Z,8.15
2023-05-18T05:03:24.089Z,8.80
2023-05-18T05:05:27.448Z,8.38
2023-05-18T05:07:30.291Z,8.80
2023-05-18T05:09:33.069Z,8.61
2023-05-18T05:11:35.821Z,8.36
2023-05-18T05:13:38.533Z,8.32
2023-05-18T05:15:41.340Z,8.10
2023-05-18T05:17:45.550Z,8.03
2023-05-18T05:19:48.212Z,7.71
2023-05-18T05:21:50.868Z,7.83
2023-05-18T05:23:53.801Z,7.80
2023-05-18T05:25:56.487Z,7.73
2023-05-18T05:27:59.147Z,7.83
2023-05-18T05:30:02.022Z,8.07
2023-05-18T05:32:05.264Z,7.97
2023-05-18T05:34:11.764Z,8.22
2023-05-18T05:36:14.534Z,7.86
2023-05-18T05:38:17.174Z,8.06
2023-05-18T05:40:20.353Z,8.22
2023-05-18T05:42:22.986Z,8.13
2023-05-18T05:44:25.660Z,8.42
2023-05-18T05:46:28.454Z,8.59
2023-05-18T05:48:31.074Z,8.99
2023-05-18T05:50:35.285Z,9.02
2023-05-18T05:52:37.915Z,8.95
2023-05-18T05:54:41.908Z,9.21
2023-05-18T05:56:44.766Z,9.07
2023-05-18T05:58:47.490Z,9.56
2023-05-18T06:00:50.818Z,9.80
2023-05-18T06:02:53.506Z,9.75
2023-05-18T06:04:56.377Z,9.62
2023-05-18T06:07:00.724Z,9.60
2023-05-18T06:09:04.460Z,9.65
2023-05-18T06:11:08.226Z,9.77
2023-05-18T06:13:12.728Z,9.64
2023-05-18T06:15:15.564Z,9.94
2023-05-18T06:17:18.295Z,10.22
2023-05-18T06:19:21.064Z,10.14
2023-05-18T06:21:24.002Z,10.07
2023-05-18T06:23:28.075Z,9.94
2023-05-18T06:25:31.100Z,10.77
2023-05-18T06:27:34.136Z,10.15
2023-05-18T06:29:36.893Z,10.36
2023-05-18T06:31:39.616Z,10.57
2023-05-18T06:33:42.435Z,11.05
2023-05-18T06:35:45.081Z,11.39
2023-05-18T06:37:47.742Z,11.13
2023-05-18T06:39:51.731Z,10.86
2023-05-18T06:41:54.383Z,11.18
2023-05-18T06:44:00.184Z,10.88
2023-05-18T06:46:02.862Z,11.29
2023-05-18T06:48:06.278Z,10.98
2023-05-18T06:50:09.484Z,10.50
2023-05-18T06:52:13.639Z,10.69
2023-05-18T06:54:16.349Z,11.83
2023-05-18T06:56:21.868Z,11.98
2023-05-18T06:58:24.506Z,12.26
2023-05-18T07:00:27.166Z,11.52
2023-05-18T07:02:29.888Z,12.66
2023-05-18T07:04:32.567Z,12.32
2023-05-18T07:06:35.235Z,11.66
2023-05-18T07:08:37.936Z,12.11
2023-05-18T07:10:41.079Z,12.34
2023-05-18T07:12:45.077Z,12.80
2023-05-18T07:14:48.042Z,12.87
2023-05-18T07:16:50.723Z,12.45
2023-05-18T07:18:53.520Z,12.13
2023-05-18T07:20:56.226Z,12.46
2023-05-18T07:22:59.822Z,12.43
2023-05-18T07:25:02.494Z,12.15
2023-05-18T07:27:05.739Z,13.07
2023-05-18T07:29:09.803Z,12.90
2023-05-18T07:31:14.352Z,13.83
2023-05-18T07:33:17.150Z,13.76
2023-05-18T07:35:21.581Z,14.18
2023-05-18T07:37:24.304Z,14.17
2023-05-18T07:39:29.401Z,14.03
2023-05-18T07:41:32.315Z,13.99
2023-05-18T07:43:35.017Z,15.37
2023-05-18T07:45:39.047Z,14.47
2023-05-18T07:47:41.938Z,14.29
2023-05-18T07:49:44.629Z,14.08
2023-05-18T07:51:47.249Z,14.69
2023-05-18T07:53:49.962Z,14.42
2023-05-18T07:55:52.666Z,14.16
2023-05-18T07:57:55.347Z,15.91
2023-05-18T07:59:58.028Z,15.00
2023-05-18T08:02:02.208Z,15.14
2023-05-18T08:04:05.214Z,15.27
2023-05-18T08:06:08.385Z,15.70
2023-05-18T08:08:11.915Z,14.65
2023-05-18T08:10:14.770Z,14.92
2023-05-18T08:12:17.435Z,14.55
2023-05-18T08:14:20.273Z,15.59
2023-05-18T08:16:23.040Z,16.27
2023-05-18T08:18:27.875Z,15.53
2023-05-18T08:20:30.685Z,15.72
2023-05-18T08:22:33.347Z,14.52
2023-05-18T08:24:36.047Z,16.47
2023-05-18T08:26:38.744Z,16.53
2023-05-18T08:28:41.890Z,16.69
2023-05-18T08:30:44.511Z,16.47
2023-05-18T08:32:47.192Z,15.62
2023-05-18T08:34:51.761Z,15.74
2023-05-18T08:36:54.398Z,16.54
2023-05-18T08:38:57.099Z,16.75
2023-05-18T08:41:07.108Z,16.33
2023-05-18T08:43:18.973Z,16.64
2023-05-18T08:45:28.664Z,16.55
2023-05-18T08:47:32.364Z,16.69
2023-05-18T08:49:35.961Z,16.40
2023-05-18T08:51:43.561Z,15.83
2023-05-18T08:53:50.612Z,15.94
2023-05-18T08:55:55.257Z,16.66
2023-05-18T08:58:00.368Z,16.55
2023-05-18T09:00:05.301Z,16.58
2023-05-18T09:02:08.274Z,15.23
2023-05-18T09:04:12.702Z,14.75
2023-05-18T09:06:15.960Z,14.68
2023-05-18T09:08:20.095Z,14.98
2023-05-18T09:10:25.173Z,14.19
2023-05-18T09:12:29.696Z,14.39
2023-05-18T09:14:33.180Z,15.56
2023-05-18T09:16:36.009Z,15.13
2023-05-18T09:18:38.728Z,16.16
2023-05-18T09:20:41.730Z,15.51
2023-05-18T09:22:44.808Z,15.35
2023-05-18T09:24:50.151Z,14.51
2023-05-18T09:26:52.927Z,14.12
2023-05-18T09:28:56.078Z,13.82
2023-05-18T09:30:58.784Z,13.84
2023-05-18T09:33:01.595Z,14.18
2023-05-18T09:35:08.625Z,14.55
2023-05-18T09:37:11.403Z,13.95
2023-05-18T09:39:14.160Z,14.23
2023-05-18T09:41:19.126Z,14.67
2023-05-18T09:43:22.264Z,14.28
2023-05-18T09:45:26.597Z,13.94
2023-05-18T09:47:29.402Z,15.41
2023-05-18T09:49:32.187Z,16.42
2023-05-18T09:51:38.497Z,15.90
2023-05-18T09:53:41.566Z,16.66
2023-05-18T09:55:48.684Z,16.60
2023-05-18T09:57:53.935Z,16.81
2023-05-18T09:59:57.908Z,15.22
2023-05-18T10:02:02.382Z,15.75
2023-05-18T10:04:06.370Z,15.91
2023-05-18T10:06:10.497Z,15.99
2023-05-18T10:08:15.034Z,15.36
2023-05-18T10:10:20.315Z,16.46
2023-05-18T10:12:24.548Z,15.96
2023-05-18T10:14:33.553Z,15.90
2023-05-18T10:16:36.382Z,16.57
2023-05-18T10:18:40.732Z,16.27
2023-05-18T10:20:44.660Z,17.17
2023-05-18T10:22:49.305Z,16.58
2023-05-18T10:24:52.963Z,16.44
2023-05-18T10:27:01.322Z,16.40
2023-05-18T10:29:05.758Z,14.98
2023-05-18T10:31:10.166Z,14.58
2023-05-18T10:33:24.447Z,15.20
2023-05-18T10:35:31.994Z,16.21
2023-05-18T10:37:36.958Z,15.97
2023-05-18T10:39:40.877Z,16.63
2023-05-18T10:41:44.982Z,16.18
2023-05-18T10:43:48.996Z,15.65
2023-05-18T10:45:54.860Z,15.68
2023-05-18T10:48:01.701Z,15.21
2023-05-18T10:50:06.202Z,15.65
2023-05-18T10:52:10.562Z,15.75
2023-05-18T10:54:14.750Z,16.58
2023-05-18T10:56:17.796Z,15.76
2023-05-18T10:58:22.491Z,15.94
2023-05-18T11:00:25.459Z,16.10
2023-05-18T11:02:28.875Z,16.62
2023-05-18T11:04:33.386Z,16.19
2023-05-18T11:06:36.425Z,16.59
2023-05-18T11:08:48.779Z,17.19
2023-05-18T11:10:59.842Z,16.85
2023-05-18T11:13:02.894Z,16.27
2023-05-18T11:15:06.947Z,17.17
2023-05-18T11:17:20.499Z,16.65
2023-05-18T11:19:27.073Z,16.77
2023-05-18T11:21:52.890Z,17.02
2023-05-18T11:24:15.934Z,16.05
2023-05-18T11:26:18.650Z,16.25
2023-05-18T11:28:23.657Z,17.02
2023-05-18T11:30:31.081Z,16.96
2023-05-18T11:32:34.211Z,17.04
2023-05-18T11:34:46.628Z,16.64
2023-05-18T11:36:56.072Z,16.38
2023-05-18T11:39:07.719Z,16.62
2023-05-18T11:41:28.280Z,17.22
2023-05-18T11:43:31.287Z,16.96
2023-05-18T11:45:34.867Z,16.84
2023-05-18T11:47:40.550Z,17.17
2023-05-18T11:49:45.170Z,17.31
2023-05-18T11:52:02.295Z,17.17
2023-05-18T11:54:10.007Z,16.80
2023-05-18T11:56:13.944Z,17.32
2023-05-18T11:58:20.323Z,16.98
2023-05-18T12:00:25.053Z,16.78
2023-05-18T12:02:32.083Z,17.25
2023-05-18T12:04:36.380Z,16.25
2023-05-18T12:06:39.545Z,16.60
2023-05-18T12:08:44.018Z,17.41
2023-05-18T12:10:48.280Z,17.92
2023-05-18T12:12:53.838Z,17.61
2023-05-18T12:14:57.936Z,17.10
2023-05-18T12:17:01.319Z,16.91
2023-05-18T12:19:04.085Z,17.05
2023-05-18T12:21:07.324Z,17.09
2023-05-18T12:23:10.007Z,17.52
2023-05-18T12:25:13.115Z,17.14
2023-05-18T12:27:17.219Z,17.19
2023-05-18T12:29:22.915Z,17.70
2023-05-18T12:31:26.381Z,17.95
2023-05-18T12:33:29.379Z,17.72
2023-05-18T12:35:33.388Z,17.52
2023-05-18T12:37:45.250Z,17.09
2023-05-18T12:39:53.106Z,16.76
2023-05-18T12:42:09.042Z,16.70
2023-05-18T12:44:13.088Z,16.80
2023-05-18T12:46:15.947Z,17.08
2023-05-18T12:48:18.807Z,17.67
2023-05-18T12:50:21.804Z,16.77
2023-05-18T12:52:24.511Z,16.61
2023-05-18T12:54:30.196Z,17.04
2023-05-18T12:56:52.650Z,17.11
2023-05-18T12:58:57.471Z,17.35
2023-05-18T13:01:08.381Z,17.10
2023-05-18T13:03:15.670Z,17.75
2023-05-18T13:05:25.171Z,17.24
2023-05-18T13:07:28.039Z,17.30
2023-05-18T13:09:30.838Z,17.71
2023-05-18T13:11:34.695Z,17.54
2023-05-18T13:13:37.385Z,17.41
2023-05-18T13:15:41.157Z,16.95
2023-05-18T13:17:58.147Z,16.86
2023-05-18T13:20:00.993Z,17.42
2023-05-18T13:22:03.730Z,17.76
2023-05-18T13:24:07.105Z,17.66
2023-05-18T13:26:09.738Z,18.31
2023-05-18T13:28:13.779Z,17.73
2023-05-18T13:30:17.957Z,17.47
2023-05-18T13:32:20.932Z,17.42
2023-05-18T13:34:24.953Z,16.79
2023-05-18T13:36:29.705Z,16.70
2023-05-18T13:38:35.519Z,16.81
2023-05-18T13:40:38.948Z,17.11
2023-05-18T13:42:41.598Z,17.35
2023-05-18T13:44:44.315Z,17.48
2023-05-18T13:46:46.966Z,17.80
2023-05-18T13:48:49.671Z,17.50
2023-05-18T13:50:53.726Z,17.40
2023-05-18T13:52:56.586Z,17.39
2023-05-18T13:54:59.270Z,18.00
2023-05-18T13:57:02.293Z,18.27
2023-05-18T13:59:05.052Z,17.76
2023-05-18T14:01:12.765Z,17.34
2023-05-18T14:03:17.626Z,17.32
2023-05-18T14:05:20.541Z,17.43
2023-05-18T14:07:24.907Z,17.68
2023-05-18T14:09:28.199Z,17.57
2023-05-18T14:11:34.428Z,17.48
2023-05-18T14:13:37.203Z,17.76
2023-05-18T14:15:39.938Z,17.56
2023-05-18T14:17:42.883Z,17.56
2023-05-18T14:19:45.651Z,17.54
2023-05-18T14:21:48.267Z,17.38
2023-05-18T14:23:52.246Z,16.99
2023-05-18T14:25:56.030Z,17.17
2023-05-18T14:27:58.758Z,17.50
2023-05-18T14:30:01.603Z,17.36
2023-05-18T14:32:04.410Z,17.30
2023-05-18T14:34:07.155Z,17.52
2023-05-18T14:36:09.983Z,17.70
2023-05-18T14:38:13.017Z,18.00
2023-05-18T14:40:17.031Z,17.73
2023-05-18T14:42:19.864Z,17.73
2023-05-18T14:44:22.702Z,17.67
2023-05-18T14:46:25.401Z,17.35
2023-05-18T14:48:28.111Z,17.56
2023-05-18T14:50:30.912Z,17.51
2023-05-18T14:52:33.694Z,17.47
2023-05-18T14:54:36.620Z,17.17
2023-05-18T14:56:41.025Z,17.12
2023-05-18T14:58:43.713Z,16.84
2023-05-18T15:00:46.482Z,16.79
2023-05-18T15:02:49.369Z,16.90
2023-05-18T15:04:52.147Z,16.92
2023-05-18T15:06:54.825Z,16.79
2023-05-18T15:08:57.563Z,16.74
2023-05-18T15:11:00.351Z,16.64
2023-05-18T15:13:04.784Z,16.67
2023-05-18T15:15:08.760Z,16.78
2023-05-18T15:17:12.413Z,16.65
2023-05-18T15:19:15.207Z,16.08
2023-05-18T15:21:18.146Z,16.43
2023-05-18T15:23:20.929Z,16.36
2023-05-18T15:25:23.678Z,16.30
2023-05-18T15:27:26.488Z,16.12
2023-05-18T15:29:30.636Z,16.12
2023-05-18T15:31:33.868Z,16.15
2023-05-18T15:33:41.986Z,16.34
2023-05-18T15:35:44.773Z,16.24
2023-05-18T15:37:47.500Z,16.11
2023-05-18T15:39:50.224Z,15.87
2023-05-18T15:41:52.951Z,15.95
2023-05-18T15:43:55.811Z,16.11
2023-05-18T15:45:59.929Z,15.88
2023-05-18T15:48:02.743Z,16.01
2023-05-18T15:50:06.264Z,16.10
2023-05-18T15:52:09.519Z,15.97
2023-05-18T15:54:12.249Z,15.90
2023-05-18T15:56:14.990Z,16.00
2023-05-18T15:58:17.859Z,16.17
2023-05-18T16:00:22.196Z,16.07
2023-05-18T16:02:26.362Z,15.96
2023-05-18T16:04:29.183Z,15.97
2023-05-18T16:06:31.908Z,15.82
2023-05-18T16:08:34.547Z,15.80
2023-05-18T16:10:37.314Z,15.80
2023-05-18T16:12:39.973Z,15.64
2023-05-18T16:14:42.632Z,15.63
2023-05-18T16:16:45.422Z,15.76
2023-05-18T16:18:49.733Z,15.70
2023-05-18T16:20:52.621Z,15.70
2023-05-18T16:22:55.688Z,15.53
2023-05-18T16:24:58.958Z,15.55
2023-05-18T16:27:02.166Z,15.54
2023-05-18T16:29:04.991Z,15.62
2023-05-18T16:31:10.990Z,15.64
2023-05-18T16:33:13.928Z,15.73
2023-05-18T16:35:18.208Z,15.55
2023-05-18T16:37:20.877Z,15.42
2023-05-18T16:39:25.367Z,15.44
2023-05-18T16:41:29.985Z,15.65
2023-05-18T16:43:32.961Z,15.55
2023-05-18T16:45:36.002Z,15.62
2023-05-18T16:47:39.413Z,15.40
2023-05-18T16:49:43.933Z,15.42
2023-05-18T16:51:47.913Z,15.41
2023-05-18T16:53:52.261Z,15.27
2023-05-18T16:55:54.911Z,15.31
2023-05-18T16:57:57.628Z,15.36
2023-05-18T17:00:00.909Z,15.27
2023-05-18T17:02:03.742Z,15.38
2023-05-18T17:04:06.588Z,15.29
2023-05-18T17:06:09.437Z,15.23
2023-05-18T17:08:14.024Z,15.28
2023-05-18T17:10:16.930Z,15.33
2023-05-18T17:12:19.701Z,15.30
2023-05-18T17:14:22.394Z,15.19
2023-05-18T17:16:26.578Z,15.06
2023-05-18T17:18:29.405Z,15.15
2023-05-18T17:20:32.262Z,15.11
2023-05-18T17:22:35.130Z,15.13
2023-05-18T17:24:39.318Z,15.09
2023-05-18T17:26:42.146Z,15.17
2023-05-18T17:28:44.793Z,15.20
2023-05-18T17:30:47.470Z,15.26
2023-05-18T17:32:50.953Z,15.24
2023-05-18T17:34:53.710Z,14.98
2023-05-18T17:36:56.458Z,15.07
2023-05-18T17:38:59.098Z,15.11
2023-05-18T17:41:04.150Z,15.04
2023-05-18T17:43:06.952Z,15.18
2023-05-18T17:45:10.937Z,15.12
2023-05-18T17:47:13.682Z,15.13
2023-05-18T17:49:16.841Z,15.36
2023-05-18T17:51:19.693Z,15.13
2023-05-18T17:53:22.568Z,15.04
2023-05-18T17:55:25.338Z,15.12
2023-05-18T17:57:30.140Z,15.14
2023-05-18T17:59:32.856Z,15.11
2023-05-18T18:01:35.905Z,15.13
2023-05-18T18:03:39.026Z,15.11
2023-05-18T18:05:41.952Z,15.05
2023-05-18T18:07:44.717Z,14.87
2023-05-18T18:09:47.361Z,14.96
2023-05-18T18:11:50.022Z,15.02
2023-05-18T18:13:54.517Z,15.11
2023-05-18T18:15:57.263Z,14.90
2023-05-18T18:17:59.939Z,14.99
2023-05-18T18:20:02.677Z,14.84
2023-05-18T18:22:05.778Z,14.84
2023-05-18T18:24:08.777Z,14.99
2023-05-18T18:26:11.986Z,15.00
2023-05-18T18:28:15.246Z,14.83
2023-05-18T18:30:19.436Z,14.76
2023-05-18T18:32:22.226Z,14.82
2023-05-18T18:34:24.922Z,14.59
2023-05-18T18:36:27.666Z,14.61
2023-05-18T18:38:30.453Z,14.67
2023-05-18T18:40:33.840Z,14.72
2023-05-18T18:42:36.865Z,14.69
2023-05-18T18:44:39.603Z,14.64
2023-05-18T18:46:43.770Z,14.56
2023-05-18T18:48:46.476Z,14.45
2023-05-18T18:50:49.369Z,14.52
2023-05-18T18:52:52.099Z,14.41
2023-05-18T18:54:54.809Z,14.33
2023-05-18T18:56:57.690Z,14.58
2023-05-18T18:59:00.353Z,14.43
2023-05-18T19:01:03.177Z,14.49
2023-05-18T19:03:07.339Z,14.44
2023-05-18T19:05:10.993Z,14.51
2023-05-18T19:07:13.743Z,14.39
2023-05-18T19:09:16.464Z,14.44
2023-05-18T19:11:21.850Z,14.39
2023-05-18T19:13:24.670Z,14.45
2023-05-18T19:15:27.403Z,14.40
2023-05-18T19:17:30.187Z,14.26
2023-05-18T19:19:34.297Z,14.34
2023-05-18T19:21:37.085Z,14.33
2023-05-18T19:23:39.781Z,14.28
2023-05-18T19:25:42.512Z,14.26
2023-05-18T19:27:45.261Z,14.29
2023-05-18T19:29:47.963Z,14.31
2023-05-18T19:31:50.703Z,14.14
2023-05-18T19:33:53.651Z,14.07
2023-05-18T19:35:58.879Z,14.05
2023-05-18T19:38:02.326Z,14.05
2023-05-18T19:40:05.816Z,13.91
2023-05-18T19:42:08.639Z,13.84
2023-05-18T19:44:11.675Z,13.85
2023-05-18T19:46:14.564Z,13.85
2023-05-18T19:48:17.497Z,13.80
2023-05-18T19:50:20.631Z,13.64
2023-05-18T19:52:24.740Z,13.75
2023-05-18T19:54:27.471Z,13.76
2023-05-18T19:56:30.365Z,13.58
2023-05-18T19:58:33.046Z,13.50
2023-05-18T20:00:37.978Z,13.47
2023-05-18T20:02:41.209Z,13.60
2023-05-18T20:04:44.246Z,13.67
2023-05-18T20:06:47.012Z,13.50
2023-05-18T20:08:51.130Z,13.43
2023-05-18T20:10:53.898Z,13.58
2023-05-18T20:12:56.600Z,13.51
2023-05-18T20:14:59.292Z,13.60
2023-05-18T20:17:02.168Z,13.49
2023-05-18T20:19:04.980Z,13.46
2023-05-18T20:21:07.720Z,13.39
2023-05-18T20:23:11.152Z,13.59
2023-05-18T20:25:15.442Z,13.52
2023-05-18T20:27:18.226Z,13.54
2023-05-18T20:29:21.082Z,13.58
2023-05-18T20:31:23.869Z,13.39
2023-05-18T20:33:26.655Z,13.39
2023-05-18T20:35:29.298Z,13.26
2023-05-18T20:37:34.064Z,13.31
2023-05-18T20:39:37.624Z,13.35
2023-05-18T20:41:41.686Z,13.35
2023-05-18T20:43:45.231Z,13.34
2023-05-18T20:45:49.388Z,13.31
2023-05-18T20:47:52.907Z,13.32
2023-05-18T20:49:58.230Z,13.35
2023-05-18T20:52:01.388Z,13.33
2023-05-18T20:54:04.384Z,13.45
2023-05-18T20:56:07.112Z,13.40
2023-05-18T20:58:11.203Z,13.47
2023-05-18T21:00:14.630Z,13.48
2023-05-18T21:02:19.511Z,13.37
2023-05-18T21:04:22.256Z,13.40
2023-05-18T21:06:25.547Z,13.36
2023-05-18T21:08:29.222Z,13.41
2023-05-18T21:10:32.650Z,13.36
2023-05-18T21:12:35.725Z,13.43
2023-05-18T21:14:39.870Z,13.30
2023-05-18T21:16:42.709Z,13.40
2023-05-18T21:18:45.594Z,13.32
2023-05-18T21:20:48.322Z,13.33
2023-05-18T21:22:51.360Z,13.33
2023-05-18T21:24:54.085Z,13.38
2023-05-18T21:26:56.841Z,13.43
2023-05-18T21:28:59.528Z,13.20
2023-05-18T21:31:04.188Z,13.27
2023-05-18T21:33:06.955Z,13.31
2023-05-18T21:35:09.771Z,13.22
2023-05-18T21:37:12.516Z,13.27
2023-05-18T21:39:15.246Z,13.25
2023-05-18T21:41:17.951Z,13.28
2023-05-18T21:43:20.640Z,13.20
2023-05-18T21:45:23.349Z,13.14
2023-05-18T21:47:27.516Z,13.07
2023-05-18T21:49:30.310Z,13.12
2023-05-18T21:51:33.377Z,13.11
2023-05-18T21:53:36.037Z,13.24
2023-05-18T21:55:38.812Z,13.12
2023-05-18T21:57:41.533Z,13.19
2023-05-18T21:59:44.276Z,13.02
2023-05-18T22:01:47.057Z,13.14
2023-05-18T22:03:51.340Z,13.12
2023-05-18T22:05:54.250Z,13.10
2023-05-18T22:07:58.803Z,12.98
2023-05-18T22:10:01.527Z,13.12
2023-05-18T22:12:04.594Z,13.06
2023-05-18T22:14:07.313Z,13.08
2023-05-18T22:16:10.063Z,13.01
2023-05-18T22:18:12.907Z,13.14
2023-05-18T22:20:17.239Z,12.93
2023-05-18T22:22:30.255Z,12.98
2023-05-18T22:24:33.470Z,13.08
2023-05-18T22:26:36.323Z,13.04
2023-05-18T22:28:39.051Z,12.96
2023-05-18T22:30:41.835Z,13.02
2023-05-18T22:32:46.220Z,12.99
2023-05-18T22:34:48.951Z,12.94
2023-05-18T22:36:53.046Z,12.96
2023-05-18T22:38:56.423Z,12.89
2023-05-18T22:40:59.234Z,12.82
2023-05-18T22:43:01.948Z,12.80
2023-05-18T22:45:05.162Z,12.57
2023-05-18T22:47:09.289Z,12.56
2023-05-18T22:49:12.097Z,12.46
2023-05-18T22:51:15.558Z,12.41
2023-05-18T22:53:19.750Z,12.47
2023-05-18T22:55:22.509Z,12.42
2023-05-18T22:57:25.165Z,12.41
2023-05-18T22:59:28.745Z,12.30
2023-05-18T23:01:31.531Z,12.25
2023-05-18T23:03:34.248Z,12.25
2023-05-18T23:05:41.115Z,12.10
2023-05-18T23:07:44.044Z,12.21
2023-05-18T23:09:48.101Z,12.10
2023-05-18T23:11:52.391Z,12.21
2023-05-18T23:13:55.598Z,12.18
2023-05-18T23:16:01.005Z,12.04
2023-05-18T23:18:04.054Z,12.02
2023-05-18T23:20:08.092Z,12.04
2023-05-18T23:22:11.333Z,11.94
2023-05-18T23:24:15.550Z,12.06
2023-05-18T23:26:19.695Z,12.14
2023-05-18T23:28:22.512Z,12.10
2023-05-18T23:30:25.426Z,12.08
2023-05-18T23:32:28.825Z,12.16
2023-05-18T23:34:32.886Z,12.29
2023-05-18T23:36:36.043Z,12.29
2023-05-18T23:38:40.913Z,12.21
2023-05-18T23:40:43.816Z,12.16
2023-05-18T23:42:48.547Z,12.17
2023-05-18T23:44:51.818Z,12.32
2023-05-18T23:46:55.278Z,12.18
2023-05-18T23:48:59.797Z,12.22
2023-05-18T23:51:04.002Z,12.27
2023-05-18T23:53:07.642Z,12.09
2023-05-18T23:55:12.201Z,12.10
2023-05-18T23:57:15.604Z,12.07
2023-05-18T23:59:20.113Z,12.18
